sensor_id;sensor_type;location;lat;lon;timestamp;temperature;humidity
75164;HTU21D;63746;45.402;37.922;2023-07-20T00:01:24;22.42;57.52
75164;HTU21D;63746;45.402;37.922;2023-07-20T00:03:49;22.41;57.55
75164;HTU21D;63746;45.402;37.922;2023-07-20T00:06:26;22.41;57.79
75164;HTU21D;63746;45.402;37.922;2023-07-20T00:08:55;22.40;57.57
75164;HTU21D;63746;45.402;37.922;2023-07-20T00:11:25;22.39;57.69
75164;HTU21D;63746;45.402;37.922;2023-07-20T00:13:51;22.37;57.58
75164;HTU21D;63746;45.402;37.922;2023-07-20T00:16:17;22.35;57.60
75164;HTU21D;63746;45.402;37.922;2023-07-20T00:18:43;22.34;57.61
75164;HTU21D;63746;45.402;37.922;2023-07-20T00:21:09;22.32;57.61
75164;HTU21D;63746;45.402;37.922;2023-07-20T00:23:54;22.27;57.67
75164;HTU21D;63746;45.402;37.922;2023-07-20T00:26:20;22.26;57.73
75164;HTU21D;63746;45.402;37.922;2023-07-20T00:28:46;22.25;57.74
75164;HTU21D;63746;45.402;37.922;2023-07-20T00:31:12;22.24;57.77
75164;HTU21D;63746;45.402;37.922;2023-07-20T00:33:38;22.23;57.77
75164;HTU21D;63746;45.402;37.922;2023-07-20T00:36:03;22.22;57.79
75164;HTU21D;63746;45.402;37.922;2023-07-20T00:38:29;22.23;57.78
75164;HTU21D;63746;45.402;37.922;2023-07-20T00:40:55;22.22;57.77
75164;HTU21D;63746;45.402;37.922;2023-07-20T00:43:21;22.22;57.79
75164;HTU21D;63746;45.402;37.922;2023-07-20T00:45:47;22.22;57.79
75164;HTU21D;63746;45.402;37.922;2023-07-20T00:48:14;22.21;57.81
75164;HTU21D;63746;45.402;37.922;2023-07-20T00:50:42;22.20;57.80
75164;HTU21D;63746;45.402;37.922;2023-07-20T00:53:09;22.18;57.80
75164;HTU21D;63746;45.402;37.922;2023-07-20T00:55:35;22.18;57.82
75164;HTU21D;63746;45.402;37.922;2023-07-20T00:58:01;22.16;57.79
75164;HTU21D;63746;45.402;37.922;2023-07-20T01:00:27;22.16;57.78
75164;HTU21D;63746;45.402;37.922;2023-07-20T01:02:53;22.13;57.81
75164;HTU21D;63746;45.402;37.922;2023-07-20T01:05:21;22.11;57.84
75164;HTU21D;63746;45.402;37.922;2023-07-20T01:07:55;22.11;57.83
75164;HTU21D;63746;45.402;37.922;2023-07-20T01:10:36;22.09;58.12
75164;HTU21D;63746;45.402;37.922;2023-07-20T01:13:05;22.06;57.85
75164;HTU21D;63746;45.402;37.922;2023-07-20T01:15:34;22.04;57.88
75164;HTU21D;63746;45.402;37.922;2023-07-20T01:18:00;22.02;57.88
75164;HTU21D;63746;45.402;37.922;2023-07-20T01:20:31;21.99;57.93
75164;HTU21D;63746;45.402;37.922;2023-07-20T01:26:10;21.96;58.39
75164;HTU21D;63746;45.402;37.922;2023-07-20T01:33:50;21.90;57.94
75164;HTU21D;63746;45.402;37.922;2023-07-20T01:36:18;21.85;57.92
75164;HTU21D;63746;45.402;37.922;2023-07-20T01:38:45;21.85;57.95
75164;HTU21D;63746;45.402;37.922;2023-07-20T01:41:12;21.82;57.98
75164;HTU21D;63746;45.402;37.922;2023-07-20T01:43:38;21.81;58.01
75164;HTU21D;63746;45.402;37.922;2023-07-20T01:46:04;21.80;58.00
75164;HTU21D;63746;45.402;37.922;2023-07-20T01:48:30;21.79;57.99
75164;HTU21D;63746;45.402;37.922;2023-07-20T01:50:56;21.77;57.97
75164;HTU21D;63746;45.402;37.922;2023-07-20T01:53:22;21.74;58.00
75164;HTU21D;63746;45.402;37.922;2023-07-20T01:55:48;21.72;58.00
75164;HTU21D;63746;45.402;37.922;2023-07-20T01:58:14;21.70;58.00
75164;HTU21D;63746;45.402;37.922;2023-07-20T02:00:40;21.69;58.02
75164;HTU21D;63746;45.402;37.922;2023-07-20T02:03:06;21.65;58.03
75164;HTU21D;63746;45.402;37.922;2023-07-20T02:05:32;21.64;58.02
75164;HTU21D;63746;45.402;37.922;2023-07-20T02:07:58;21.61;58.02
75164;HTU21D;63746;45.402;37.922;2023-07-20T02:10:24;21.57;58.03
75164;HTU21D;63746;45.402;37.922;2023-07-20T02:12:50;21.54;58.04
75164;HTU21D;63746;45.402;37.922;2023-07-20T02:15:16;21.51;58.07
75164;HTU21D;63746;45.402;37.922;2023-07-20T02:17:44;21.50;58.11
75164;HTU21D;63746;45.402;37.922;2023-07-20T02:20:10;21.49;58.14
75164;HTU21D;63746;45.402;37.922;2023-07-20T02:22:37;21.47;58.09
75164;HTU21D;63746;45.402;37.922;2023-07-20T02:25:07;21.44;58.16
75164;HTU21D;63746;45.402;37.922;2023-07-20T02:27:33;21.42;58.13
75164;HTU21D;63746;45.402;37.922;2023-07-20T02:30:00;21.40;58.16
75164;HTU21D;63746;45.402;37.922;2023-07-20T02:32:26;21.38;58.16
75164;HTU21D;63746;45.402;37.922;2023-07-20T02:34:52;21.36;58.17
75164;HTU21D;63746;45.402;37.922;2023-07-20T02:37:18;21.34;58.19
75164;HTU21D;63746;45.402;37.922;2023-07-20T02:39:44;21.34;58.24
75164;HTU21D;63746;45.402;37.922;2023-07-20T02:42:11;21.34;58.24
75164;HTU21D;63746;45.402;37.922;2023-07-20T02:44:37;21.33;58.25
75164;HTU21D;63746;45.402;37.922;2023-07-20T02:47:02;21.33;58.28
75164;HTU21D;63746;45.402;37.922;2023-07-20T02:49:28;21.33;58.29
75164;HTU21D;63746;45.402;37.922;2023-07-20T02:51:54;21.33;58.29
75164;HTU21D;63746;45.402;37.922;2023-07-20T02:54:21;21.33;58.34
75164;HTU21D;63746;45.402;37.922;2023-07-20T02:56:47;21.35;58.34
75164;HTU21D;63746;45.402;37.922;2023-07-20T02:59:13;21.36;58.35
75164;HTU21D;63746;45.402;37.922;2023-07-20T03:01:39;21.38;58.34
75164;HTU21D;63746;45.402;37.922;2023-07-20T03:04:07;21.42;59.62
75164;HTU21D;63746;45.402;37.922;2023-07-20T03:06:35;21.39;59.91
75164;HTU21D;63746;45.402;37.922;2023-07-20T03:09:02;21.37;58.49
75164;HTU21D;63746;45.402;37.922;2023-07-20T03:11:29;21.38;58.53
75164;HTU21D;63746;45.402;37.922;2023-07-20T03:13:56;21.42;58.54
75164;HTU21D;63746;45.402;37.922;2023-07-20T03:16:24;21.45;58.55
75164;HTU21D;63746;45.402;37.922;2023-07-20T03:18:52;21.47;58.52
75164;HTU21D;63746;45.402;37.922;2023-07-20T03:21:19;21.51;58.50
75164;HTU21D;63746;45.402;37.922;2023-07-20T03:23:45;21.53;58.46
75164;HTU21D;63746;45.402;37.922;2023-07-20T03:26:11;21.59;58.45
75164;HTU21D;63746;45.402;37.922;2023-07-20T03:28:37;21.60;58.42
75164;HTU21D;63746;45.402;37.922;2023-07-20T03:31:05;21.62;58.41
75164;HTU21D;63746;45.402;37.922;2023-07-20T03:33:34;21.64;58.43
75164;HTU21D;63746;45.402;37.922;2023-07-20T03:36:01;21.67;58.44
75164;HTU21D;63746;45.402;37.922;2023-07-20T03:38:27;21.72;58.45
75164;HTU21D;63746;45.402;37.922;2023-07-20T03:40:58;21.74;58.44
75164;HTU21D;63746;45.402;37.922;2023-07-20T03:43:25;21.75;58.48
75164;HTU21D;63746;45.402;37.922;2023-07-20T03:45:52;21.79;58.48
75164;HTU21D;63746;45.402;37.922;2023-07-20T03:48:20;21.82;58.53
75164;HTU21D;63746;45.402;37.922;2023-07-20T03:50:48;21.87;58.54
75164;HTU21D;63746;45.402;37.922;2023-07-20T03:53:15;21.91;58.53
75164;HTU21D;63746;45.402;37.922;2023-07-20T03:55:44;21.94;58.65
75164;HTU21D;63746;45.402;37.922;2023-07-20T03:58:12;21.97;58.57
75164;HTU21D;63746;45.402;37.922;2023-07-20T04:00:39;22.01;58.58
75164;HTU21D;63746;45.402;37.922;2023-07-20T04:03:05;22.05;58.57
75164;HTU21D;63746;45.402;37.922;2023-07-20T04:05:31;22.09;58.61
75164;HTU21D;63746;45.402;37.922;2023-07-20T04:07:58;22.13;58.66
75164;HTU21D;63746;45.402;37.922;2023-07-20T04:10:24;22.19;58.64
75164;HTU21D;63746;45.402;37.922;2023-07-20T04:12:51;22.22;58.64
75164;HTU21D;63746;45.402;37.922;2023-07-20T04:15:17;22.27;58.67
75164;HTU21D;63746;45.402;37.922;2023-07-20T04:17:45;22.34;58.73
75164;HTU21D;63746;45.402;37.922;2023-07-20T04:20:11;22.39;58.69
75164;HTU21D;63746;45.402;37.922;2023-07-20T04:22:37;22.44;58.67
75164;HTU21D;63746;45.402;37.922;2023-07-20T04:25:04;22.50;58.70
75164;HTU21D;63746;45.402;37.922;2023-07-20T04:27:31;22.55;58.68
75164;HTU21D;63746;45.402;37.922;2023-07-20T04:29:58;22.60;58.69
75164;HTU21D;63746;45.402;37.922;2023-07-20T04:32:25;22.66;58.67
75164;HTU21D;63746;45.402;37.922;2023-07-20T04:34:52;22.71;58.68
75164;HTU21D;63746;45.402;37.922;2023-07-20T04:37:19;22.77;58.67
75164;HTU21D;63746;45.402;37.922;2023-07-20T04:39:46;22.83;58.66
75164;HTU21D;63746;45.402;37.922;2023-07-20T04:42:12;22.90;58.64
75164;HTU21D;63746;45.402;37.922;2023-07-20T04:44:39;22.94;58.64
75164;HTU21D;63746;45.402;37.922;2023-07-20T04:47:06;23.01;58.64
75164;HTU21D;63746;45.402;37.922;2023-07-20T04:49:37;23.09;58.64
75164;HTU21D;63746;45.402;37.922;2023-07-20T04:52:03;23.13;58.63
75164;HTU21D;63746;45.402;37.922;2023-07-20T04:54:30;23.20;58.63
75164;HTU21D;63746;45.402;37.922;2023-07-20T04:56:56;23.25;58.61
75164;HTU21D;63746;45.402;37.922;2023-07-20T04:59:22;23.32;58.61
75164;HTU21D;63746;45.402;37.922;2023-07-20T05:01:48;23.39;58.63
75164;HTU21D;63746;45.402;37.922;2023-07-20T05:04:15;23.47;58.61
75164;HTU21D;63746;45.402;37.922;2023-07-20T05:06:41;23.54;58.60
75164;HTU21D;63746;45.402;37.922;2023-07-20T05:09:08;23.61;58.58
75164;HTU21D;63746;45.402;37.922;2023-07-20T05:11:34;23.70;58.57
75164;HTU21D;63746;45.402;37.922;2023-07-20T05:14:00;23.76;58.54
75164;HTU21D;63746;45.402;37.922;2023-07-20T05:16:27;23.85;58.50
75164;HTU21D;63746;45.402;37.922;2023-07-20T05:18:58;23.92;58.48
75164;HTU21D;63746;45.402;37.922;2023-07-20T05:21:24;24.00;58.46
75164;HTU21D;63746;45.402;37.922;2023-07-20T05:23:50;24.10;58.41
75164;HTU21D;63746;45.402;37.922;2023-07-20T05:26:17;24.18;58.36
75164;HTU21D;63746;45.402;37.922;2023-07-20T05:28:43;24.26;58.32
75164;HTU21D;63746;45.402;37.922;2023-07-20T05:31:08;24.34;58.29
75164;HTU21D;63746;45.402;37.922;2023-07-20T05:33:34;24.43;58.25
75164;HTU21D;63746;45.402;37.922;2023-07-20T05:36:00;24.50;58.19
75164;HTU21D;63746;45.402;37.922;2023-07-20T05:38:26;24.57;58.13
75164;HTU21D;63746;45.402;37.922;2023-07-20T05:40:52;24.65;58.09
75164;HTU21D;63746;45.402;37.922;2023-07-20T05:43:24;24.74;58.03
75164;HTU21D;63746;45.402;37.922;2023-07-20T05:45:50;24.80;58.00
75164;HTU21D;63746;45.402;37.922;2023-07-20T05:48:16;24.88;57.93
75164;HTU21D;63746;45.402;37.922;2023-07-20T05:50:42;24.95;57.90
75164;HTU21D;63746;45.402;37.922;2023-07-20T05:53:09;25.05;57.85
75164;HTU21D;63746;45.402;37.922;2023-07-20T05:55:35;25.14;57.78
75164;HTU21D;63746;45.402;37.922;2023-07-20T05:58:01;25.21;57.74
75164;HTU21D;63746;45.402;37.922;2023-07-20T06:00:27;25.30;57.66
75164;HTU21D;63746;45.402;37.922;2023-07-20T06:02:53;25.36;57.60
75164;HTU21D;63746;45.402;37.922;2023-07-20T06:05:21;25.46;57.55
75164;HTU21D;63746;45.402;37.922;2023-07-20T06:07:49;25.51;57.48
75164;HTU21D;63746;45.402;37.922;2023-07-20T06:10:15;25.59;57.44
75164;HTU21D;63746;45.402;37.922;2023-07-20T06:12:41;25.68;57.38
75164;HTU21D;63746;45.402;37.922;2023-07-20T06:15:28;25.76;57.40
75164;HTU21D;63746;45.402;37.922;2023-07-20T06:17:55;25.83;57.26
75164;HTU21D;63746;45.402;37.922;2023-07-20T06:20:22;25.90;57.22
75164;HTU21D;63746;45.402;37.922;2023-07-20T06:22:48;25.99;57.18
75164;HTU21D;63746;45.402;37.922;2023-07-20T06:25:14;26.08;57.14
75164;HTU21D;63746;45.402;37.922;2023-07-20T06:27:40;26.19;57.09
75164;HTU21D;63746;45.402;37.922;2023-07-20T06:30:07;26.28;57.02
75164;HTU21D;63746;45.402;37.922;2023-07-20T06:32:32;26.38;56.97
75164;HTU21D;63746;45.402;37.922;2023-07-20T06:34:58;26.48;56.87
75164;HTU21D;63746;45.402;37.922;2023-07-20T06:37:24;26.54;56.78
75164;HTU21D;63746;45.402;37.922;2023-07-20T06:39:50;26.61;56.71
75164;HTU21D;63746;45.402;37.922;2023-07-20T06:42:16;26.68;56.67
75164;HTU21D;63746;45.402;37.922;2023-07-20T06:44:42;26.75;56.61
75164;HTU21D;63746;45.402;37.922;2023-07-20T06:47:08;26.81;56.58
75164;HTU21D;63746;45.402;37.922;2023-07-20T06:49:34;26.89;56.53
75164;HTU21D;63746;45.402;37.922;2023-07-20T06:52:00;26.97;56.48
75164;HTU21D;63746;45.402;37.922;2023-07-20T06:54:26;27.06;56.40
75164;HTU21D;63746;45.402;37.922;2023-07-20T06:56:52;27.12;56.33
75164;HTU21D;63746;45.402;37.922;2023-07-20T06:59:18;27.20;56.32
75164;HTU21D;63746;45.402;37.922;2023-07-20T07:01:44;27.26;56.24
75164;HTU21D;63746;45.402;37.922;2023-07-20T07:04:10;27.35;56.18
75164;HTU21D;63746;45.402;37.922;2023-07-20T07:06:36;27.43;56.10
75164;HTU21D;63746;45.402;37.922;2023-07-20T07:09:03;27.51;56.05
75164;HTU21D;63746;45.402;37.922;2023-07-20T07:11:29;27.57;55.96
75164;HTU21D;63746;45.402;37.922;2023-07-20T07:13:55;27.64;55.90
75164;HTU21D;63746;45.402;37.922;2023-07-20T07:16:21;27.69;55.81
75164;HTU21D;63746;45.402;37.922;2023-07-20T07:18:49;27.74;55.82
75164;HTU21D;63746;45.402;37.922;2023-07-20T07:21:16;27.81;55.78
75164;HTU21D;63746;45.402;37.922;2023-07-20T07:23:42;27.89;55.71
75164;HTU21D;63746;45.402;37.922;2023-07-20T07:26:09;27.97;55.61
75164;HTU21D;63746;45.402;37.922;2023-07-20T07:28:36;28.03;55.57
75164;HTU21D;63746;45.402;37.922;2023-07-20T07:31:04;28.11;55.44
75164;HTU21D;63746;45.402;37.922;2023-07-20T07:33:32;28.17;55.39
75164;HTU21D;63746;45.402;37.922;2023-07-20T07:35:58;28.23;55.37
75164;HTU21D;63746;45.402;37.922;2023-07-20T07:38:25;28.32;55.34
75164;HTU21D;63746;45.402;37.922;2023-07-20T07:40:52;28.39;55.25
75164;HTU21D;63746;45.402;37.922;2023-07-20T07:43:17;28.46;55.17
75164;HTU21D;63746;45.402;37.922;2023-07-20T07:45:43;28.53;55.10
75164;HTU21D;63746;45.402;37.922;2023-07-20T07:48:09;28.58;55.02
75164;HTU21D;63746;45.402;37.922;2023-07-20T07:50:38;28.64;54.98
75164;HTU21D;63746;45.402;37.922;2023-07-20T07:53:06;28.71;54.93
75164;HTU21D;63746;45.402;37.922;2023-07-20T07:55:33;28.79;54.85
75164;HTU21D;63746;45.402;37.922;2023-07-20T07:57:59;28.85;54.74
75164;HTU21D;63746;45.402;37.922;2023-07-20T08:00:25;28.90;54.68
75164;HTU21D;63746;45.402;37.922;2023-07-20T08:02:51;28.97;54.62
75164;HTU21D;63746;45.402;37.922;2023-07-20T08:05:17;29.02;54.54
75164;HTU21D;63746;45.402;37.922;2023-07-20T08:07:43;29.08;54.49
75164;HTU21D;63746;45.402;37.922;2023-07-20T08:10:09;29.12;54.36
75164;HTU21D;63746;45.402;37.922;2023-07-20T08:12:35;29.14;54.28
75164;HTU21D;63746;45.402;37.922;2023-07-20T08:15:01;29.15;54.26
75164;HTU21D;63746;45.402;37.922;2023-07-20T08:17:27;29.17;54.24
75164;HTU21D;63746;45.402;37.922;2023-07-20T08:19:53;29.21;54.25
75164;HTU21D;63746;45.402;37.922;2023-07-20T08:22:19;29.28;54.17
75164;HTU21D;63746;45.402;37.922;2023-07-20T08:24:45;29.33;54.10
75164;HTU21D;63746;45.402;37.922;2023-07-20T08:27:11;29.39;54.01
75164;HTU21D;63746;45.402;37.922;2023-07-20T08:29:37;29.44;53.97
75164;HTU21D;63746;45.402;37.922;2023-07-20T08:32:04;29.50;53.89
75164;HTU21D;63746;45.402;37.922;2023-07-20T08:34:31;29.54;53.84
75164;HTU21D;63746;45.402;37.922;2023-07-20T08:36:58;29.63;53.78
75164;HTU21D;63746;45.402;37.922;2023-07-20T08:39:24;29.70;53.72
75164;HTU21D;63746;45.402;37.922;2023-07-20T08:41:50;29.79;53.64
75164;HTU21D;63746;45.402;37.922;2023-07-20T08:44:17;29.85;53.52
75164;HTU21D;63746;45.402;37.922;2023-07-20T08:46:43;29.90;53.46
75164;HTU21D;63746;45.402;37.922;2023-07-20T08:49:11;29.95;53.34
75164;HTU21D;63746;45.402;37.922;2023-07-20T08:51:37;29.96;53.30
75164;HTU21D;63746;45.402;37.922;2023-07-20T08:54:04;30.02;53.24
75164;HTU21D;63746;45.402;37.922;2023-07-20T08:56:31;30.05;53.22
75164;HTU21D;63746;45.402;37.922;2023-07-20T08:58:59;30.10;53.14
75164;HTU21D;63746;45.402;37.922;2023-07-20T09:01:26;30.16;53.07
75164;HTU21D;63746;45.402;37.922;2023-07-20T09:03:52;30.20;53.04
75164;HTU21D;63746;45.402;37.922;2023-07-20T09:06:18;30.25;53.03
75164;HTU21D;63746;45.402;37.922;2023-07-20T09:08:45;30.32;52.93
75164;HTU21D;63746;45.402;37.922;2023-07-20T09:11:12;30.35;52.83
75164;HTU21D;63746;45.402;37.922;2023-07-20T09:13:39;30.38;52.82
75164;HTU21D;63746;45.402;37.922;2023-07-20T09:16:05;30.41;52.75
75164;HTU21D;63746;45.402;37.922;2023-07-20T09:18:32;30.45;52.72
75164;HTU21D;63746;45.402;37.922;2023-07-20T09:21:07;30.50;52.32
75164;HTU21D;63746;45.402;37.922;2023-07-20T09:23:37;30.51;52.39
75164;HTU21D;63746;45.402;37.922;2023-07-20T09:26:13;30.54;52.23
75164;HTU21D;63746;45.402;37.922;2023-07-20T09:28:51;30.55;52.20
75164;HTU21D;63746;45.402;37.922;2023-07-20T09:31:20;30.60;52.46
75164;HTU21D;63746;45.402;37.922;2023-07-20T09:33:47;30.64;52.46
75164;HTU21D;63746;45.402;37.922;2023-07-20T09:36:13;30.69;52.36
75164;HTU21D;63746;45.402;37.922;2023-07-20T09:38:42;30.70;52.17
75164;HTU21D;63746;45.402;37.922;2023-07-20T09:41:13;30.76;52.09
75164;HTU21D;63746;45.402;37.922;2023-07-20T09:43:41;30.80;52.22
75164;HTU21D;63746;45.402;37.922;2023-07-20T09:46:08;30.84;52.14
75164;HTU21D;63746;45.402;37.922;2023-07-20T09:48:34;30.85;52.09
75164;HTU21D;63746;45.402;37.922;2023-07-20T09:51:01;30.89;52.04
75164;HTU21D;63746;45.402;37.922;2023-07-20T09:53:27;30.92;52.03
75164;HTU21D;63746;45.402;37.922;2023-07-20T09:55:54;30.95;51.97
75164;HTU21D;63746;45.402;37.922;2023-07-20T09:58:21;30.99;51.90
75164;HTU21D;63746;45.402;37.922;2023-07-20T10:00:48;31.07;51.85
75164;HTU21D;63746;45.402;37.922;2023-07-20T10:03:22;31.09;51.74
75164;HTU21D;63746;45.402;37.922;2023-07-20T10:05:53;31.13;51.59
75164;HTU21D;63746;45.402;37.922;2023-07-20T10:08:21;31.18;51.67
75164;HTU21D;63746;45.402;37.922;2023-07-20T10:10:49;31.20;51.66
75164;HTU21D;63746;45.402;37.922;2023-07-20T10:13:25;31.22;51.27
75164;HTU21D;63746;45.402;37.922;2023-07-20T10:15:59;31.23;51.28
75164;HTU21D;63746;45.402;37.922;2023-07-20T10:18:51;31.24;50.68
75164;HTU21D;63746;45.402;37.922;2023-07-20T10:21:21;31.27;51.49
75164;HTU21D;63746;45.402;37.922;2023-07-20T10:23:50;31.28;51.46
75164;HTU21D;63746;45.402;37.922;2023-07-20T10:26:16;31.33;51.46
75164;HTU21D;63746;45.402;37.922;2023-07-20T10:28:42;31.38;51.43
75164;HTU21D;63746;45.402;37.922;2023-07-20T10:31:09;31.43;51.33
75164;HTU21D;63746;45.402;37.922;2023-07-20T10:33:37;31.48;51.22
75164;HTU21D;63746;45.402;37.922;2023-07-20T10:36:04;31.48;51.18
75164;HTU21D;63746;45.402;37.922;2023-07-20T10:41:20;31.54;50.97
75164;HTU21D;63746;45.402;37.922;2023-07-20T10:43:47;31.57;51.07
75164;HTU21D;63746;45.402;37.922;2023-07-20T10:46:13;31.58;51.04
75164;HTU21D;63746;45.402;37.922;2023-07-20T10:48:59;31.61;50.30
75164;HTU21D;63746;45.402;37.922;2023-07-20T10:51:25;31.65;50.97
75164;HTU21D;63746;45.402;37.922;2023-07-20T10:53:51;31.66;50.90
75164;HTU21D;63746;45.402;37.922;2023-07-20T10:56:23;31.67;50.66
75164;HTU21D;63746;45.402;37.922;2023-07-20T10:58:49;31.68;50.82
75164;HTU21D;63746;45.402;37.922;2023-07-20T11:01:16;31.68;50.76
75164;HTU21D;63746;45.402;37.922;2023-07-20T11:03:43;31.70;50.76
75164;HTU21D;63746;45.402;37.922;2023-07-20T11:06:36;31.72;49.98
75164;HTU21D;63746;45.402;37.922;2023-07-20T11:09:10;31.70;50.50
75164;HTU21D;63746;45.402;37.922;2023-07-20T11:16:49;31.73;50.54
75164;HTU21D;63746;45.402;37.922;2023-07-20T11:19:21;31.74;50.37
75164;HTU21D;63746;45.402;37.922;2023-07-20T11:21:54;31.73;50.33
75164;HTU21D;63746;45.402;37.922;2023-07-20T11:24:20;31.74;50.55
75164;HTU21D;63746;45.402;37.922;2023-07-20T11:26:49;31.78;50.43
75164;HTU21D;63746;45.402;37.922;2023-07-20T11:29:19;31.80;50.29
75164;HTU21D;63746;45.402;37.922;2023-07-20T11:31:46;31.81;50.39
75164;HTU21D;63746;45.402;37.922;2023-07-20T11:34:21;31.84;49.91
75164;HTU21D;63746;45.402;37.922;2023-07-20T11:36:49;31.86;50.31
75164;HTU21D;63746;45.402;37.922;2023-07-20T11:39:17;31.90;50.29
75164;HTU21D;63746;45.402;37.922;2023-07-20T11:41:57;31.96;49.71
75164;HTU21D;63746;45.402;37.922;2023-07-20T11:44:25;31.99;50.18
75164;HTU21D;63746;45.402;37.922;2023-07-20T11:47:07;32.03;49.85
75164;HTU21D;63746;45.402;37.922;2023-07-20T11:49:37;32.05;49.89
75164;HTU21D;63746;45.402;37.922;2023-07-20T11:52:06;32.04;49.95
75164;HTU21D;63746;45.402;37.922;2023-07-20T11:54:33;32.04;50.01
75164;HTU21D;63746;45.402;37.922;2023-07-20T11:57:01;32.03;49.93
75164;HTU21D;63746;45.402;37.922;2023-07-20T11:59:27;32.07;49.98
75164;HTU21D;63746;45.402;37.922;2023-07-20T12:01:53;32.08;49.94
75164;HTU21D;63746;45.402;37.922;2023-07-20T12:04:22;32.05;49.85
75164;HTU21D;63746;45.402;37.922;2023-07-20T12:06:48;32.03;49.82
75164;HTU21D;63746;45.402;37.922;2023-07-20T12:09:16;31.99;49.75
75164;HTU21D;63746;45.402;37.922;2023-07-20T12:11:44;31.97;49.82
75164;HTU21D;63746;45.402;37.922;2023-07-20T12:14:13;31.94;49.82
75164;HTU21D;63746;45.402;37.922;2023-07-20T12:16:39;31.94;49.84
75164;HTU21D;63746;45.402;37.922;2023-07-20T12:19:05;31.92;49.81
75164;HTU21D;63746;45.402;37.922;2023-07-20T12:21:33;31.93;49.79
75164;HTU21D;63746;45.402;37.922;2023-07-20T12:23:59;31.94;49.77
75164;HTU21D;63746;45.402;37.922;2023-07-20T12:26:26;31.92;49.69
75164;HTU21D;63746;45.402;37.922;2023-07-20T12:28:52;31.88;49.65
75164;HTU21D;63746;45.402;37.922;2023-07-20T12:31:18;31.85;49.65
75164;HTU21D;63746;45.402;37.922;2023-07-20T12:33:44;31.82;49.64
75164;HTU21D;63746;45.402;37.922;2023-07-20T12:36:10;31.80;49.64
75164;HTU21D;63746;45.402;37.922;2023-07-20T12:38:36;31.76;49.65
75164;HTU21D;63746;45.402;37.922;2023-07-20T12:41:03;31.75;49.66
75164;HTU21D;63746;45.402;37.922;2023-07-20T12:43:29;31.75;49.67
75164;HTU21D;63746;45.402;37.922;2023-07-20T12:45:57;31.73;49.62
75164;HTU21D;63746;45.402;37.922;2023-07-20T12:48:23;31.72;49.60
75164;HTU21D;63746;45.402;37.922;2023-07-20T12:50:49;31.70;49.56
75164;HTU21D;63746;45.402;37.922;2023-07-20T12:53:15;31.68;49.53
75164;HTU21D;63746;45.402;37.922;2023-07-20T12:55:41;31.65;49.55
75164;HTU21D;63746;45.402;37.922;2023-07-20T12:58:08;31.60;49.52
75164;HTU21D;63746;45.402;37.922;2023-07-20T13:00:34;31.58;49.56
75164;HTU21D;63746;45.402;37.922;2023-07-20T13:03:00;31.56;49.55
75164;HTU21D;63746;45.402;37.922;2023-07-20T13:05:31;31.56;49.54
75164;HTU21D;63746;45.402;37.922;2023-07-20T13:08:01;31.56;49.53
75164;HTU21D;63746;45.402;37.922;2023-07-20T13:10:27;31.55;49.48
75164;HTU21D;63746;45.402;37.922;2023-07-20T13:12:53;31.53;49.47
75164;HTU21D;63746;45.402;37.922;2023-07-20T13:15:19;31.51;49.44
75164;HTU21D;63746;45.402;37.922;2023-07-20T13:17:45;31.51;49.45
75164;HTU21D;63746;45.402;37.922;2023-07-20T13:20:11;31.50;49.42
75164;HTU21D;63746;45.402;37.922;2023-07-20T13:22:38;31.46;49.37
75164;HTU21D;63746;45.402;37.922;2023-07-20T13:25:05;31.48;49.38
75164;HTU21D;63746;45.402;37.922;2023-07-20T13:27:31;31.45;49.35
75164;HTU21D;63746;45.402;37.922;2023-07-20T13:29:59;31.44;49.31
75164;HTU21D;63746;45.402;37.922;2023-07-20T13:32:27;31.42;49.30
75164;HTU21D;63746;45.402;37.922;2023-07-20T13:34:53;31.40;49.31
75164;HTU21D;63746;45.402;37.922;2023-07-20T13:37:19;31.39;49.32
75164;HTU21D;63746;45.402;37.922;2023-07-20T13:39:45;31.37;49.31
75164;HTU21D;63746;45.402;37.922;2023-07-20T13:42:11;31.36;49.29
75164;HTU21D;63746;45.402;37.922;2023-07-20T13:44:38;31.33;49.27
75164;HTU21D;63746;45.402;37.922;2023-07-20T13:47:04;31.31;49.26
75164;HTU21D;63746;45.402;37.922;2023-07-20T13:49:33;31.27;49.27
75164;HTU21D;63746;45.402;37.922;2023-07-20T13:51:59;31.25;49.27
75164;HTU21D;63746;45.402;37.922;2023-07-20T13:54:25;31.23;49.25
75164;HTU21D;63746;45.402;37.922;2023-07-20T13:56:51;31.19;49.24
75164;HTU21D;63746;45.402;37.922;2023-07-20T13:59:17;31.15;49.23
75164;HTU21D;63746;45.402;37.922;2023-07-20T14:01:43;31.12;49.23
75164;HTU21D;63746;45.402;37.922;2023-07-20T14:04:09;31.09;49.21
75164;HTU21D;63746;45.402;37.922;2023-07-20T14:06:35;31.08;49.21
75164;HTU21D;63746;45.402;37.922;2023-07-20T14:09:02;31.06;49.21
75164;HTU21D;63746;45.402;37.922;2023-07-20T14:11:29;31.04;49.20
75164;HTU21D;63746;45.402;37.922;2023-07-20T14:13:55;31.01;49.21
75164;HTU21D;63746;45.402;37.922;2023-07-20T14:16:22;30.98;49.20
75164;HTU21D;63746;45.402;37.922;2023-07-20T14:18:49;30.95;49.18
75164;HTU21D;63746;45.402;37.922;2023-07-20T14:21:16;30.94;49.18
75164;HTU21D;63746;45.402;37.922;2023-07-20T14:23:42;30.90;49.16
75164;HTU21D;63746;45.402;37.922;2023-07-20T14:26:08;30.87;49.15
75164;HTU21D;63746;45.402;37.922;2023-07-20T14:28:35;30.84;49.13
75164;HTU21D;63746;45.402;37.922;2023-07-20T14:31:01;30.81;49.14
75164;HTU21D;63746;45.402;37.922;2023-07-20T14:33:27;30.77;49.15
75164;HTU21D;63746;45.402;37.922;2023-07-20T14:35:53;30.74;49.13
75164;HTU21D;63746;45.402;37.922;2023-07-20T14:38:19;30.69;49.13
75164;HTU21D;63746;45.402;37.922;2023-07-20T14:40:44;30.67;49.11
75164;HTU21D;63746;45.402;37.922;2023-07-20T14:43:11;30.63;49.12
75164;HTU21D;63746;45.402;37.922;2023-07-20T14:45:43;30.60;49.01
75164;HTU21D;63746;45.402;37.922;2023-07-20T14:48:09;30.55;49.13
75164;HTU21D;63746;45.402;37.922;2023-07-20T14:50:35;30.52;49.11
75164;HTU21D;63746;45.402;37.922;2023-07-20T14:53:01;30.47;49.11
75164;HTU21D;63746;45.402;37.922;2023-07-20T14:55:27;30.41;49.11
75164;HTU21D;63746;45.402;37.922;2023-07-20T14:57:53;30.39;49.12
75164;HTU21D;63746;45.402;37.922;2023-07-20T15:00:19;30.35;49.15
75164;HTU21D;63746;45.402;37.922;2023-07-20T15:02:45;30.31;49.15
75164;HTU21D;63746;45.402;37.922;2023-07-20T15:05:11;30.27;49.16
75164;HTU21D;63746;45.402;37.922;2023-07-20T15:07:37;30.24;49.14
75164;HTU21D;63746;45.402;37.922;2023-07-20T15:10:04;30.20;49.14
75164;HTU21D;63746;45.402;37.922;2023-07-20T15:12:31;30.18;49.15
75164;HTU21D;63746;45.402;37.922;2023-07-20T15:15:04;30.16;48.95
75164;HTU21D;63746;45.402;37.922;2023-07-20T15:17:31;30.12;49.18
75164;HTU21D;63746;45.402;37.922;2023-07-20T15:19:56;30.09;49.18